createdAt,value
2018-12-17T00:00:51.860Z,2.75
2018-12-17T00:06:02.787Z,2.72
2018-12-17T00:11:09.724Z,2.81
2018-12-17T00:16:19.196Z,2.86
2018-12-17T00:21:31.780Z,2.92
2018-12-17T00:26:44.459Z,2.98
2018-12-17T00:31:53.702Z,2.99
2018-12-17T00:37:00.265Z,2.90
2018-12-17T00:42:13.486Z,2.96
2018-12-17T00:47:23.415Z,3.11
2018-12-17T00:52:33.318Z,3.19
2018-12-17T00:57:45.597Z,3.37
2018-12-17T01:02:57.453Z,3.47
2018-12-17T01:08:05.204Z,3.45
2018-12-17T01:13:16.281Z,3.54
2018-12-17T01:18:26.233Z,3.58
2018-12-17T01:23:39.211Z,3.65
2018-12-17T01:28:49.383Z,3.70
2018-12-17T01:33:58.077Z,3.69
2018-12-17T01:39:06.301Z,3.77
2018-12-17T01:44:15.333Z,3.80
2018-12-17T01:49:28.134Z,3.81
2018-12-17T01:54:39.012Z,3.83
2018-12-17T01:59:51.067Z,3.87
2018-12-17T02:05:08.504Z,3.88
2018-12-17T02:10:19.748Z,4.03
2018-12-17T02:15:31.527Z,4.03
2018-12-17T02:20:40.635Z,3.98
2018-12-17T02:25:51.623Z,4.04
2018-12-17T02:31:03.754Z,4.00
2018-12-17T02:36:16.374Z,4.05
2018-12-17T02:41:28.904Z,4.05
2018-12-17T02:46:39.998Z,4.04
2018-12-17T02:51:52.039Z,3.91
2018-12-17T02:57:02.971Z,4.05
2018-12-17T03:02:11.179Z,4.14
2018-12-17T03:07:24.438Z,4.19
2018-12-17T03:12:32.588Z,4.21
2018-12-17T03:17:43.365Z,4.20
2018-12-17T03:22:56.175Z,4.10
2018-12-17T03:28:03.161Z,4.12
2018-12-17T03:33:10.759Z,4.15
2018-12-17T03:38:25.272Z,4.08
2018-12-17T03:43:35.307Z,4.14
2018-12-17T03:48:44.549Z,4.15
2018-12-17T03:53:56.358Z,4.17
2018-12-17T03:59:05.522Z,4.28
2018-12-17T04:04:16.260Z,4.26
2018-12-17T04:09:34.539Z,4.51
2018-12-17T04:14:45.336Z,4.33
2018-12-17T04:20:00.586Z,4.33
2018-12-17T04:25:13.991Z,4.36
2018-12-17T04:30:25.883Z,4.31
2018-12-17T04:35:35.941Z,4.34
2018-12-17T04:40:47.087Z,4.30
2018-12-17T04:45:59.018Z,4.38
2018-12-17T04:51:08.668Z,4.41
2018-12-17T04:56:16.834Z,4.30
2018-12-17T05:01:30.987Z,4.36
2018-12-17T05:06:45.288Z,4.31
2018-12-17T05:12:53.635Z,4.34
2018-12-17T05:18:05.446Z,4.36
2018-12-17T05:23:24.292Z,4.37
2018-12-17T05:28:36.998Z,4.33
2018-12-17T05:33:44.896Z,4.29
2018-12-17T05:38:56.933Z,4.37
2018-12-17T05:44:07.722Z,4.40
2018-12-17T05:49:20.915Z,4.46
2018-12-17T05:54:32.680Z,4.52
2018-12-17T05:59:46.692Z,4.60
2018-12-17T06:04:55.556Z,4.62
2018-12-17T06:10:05.494Z,4.65
2018-12-17T06:15:18.033Z,4.70
2018-12-17T06:20:27.097Z,4.70
2018-12-17T06:25:37.345Z,4.61
2018-12-17T06:30:47.086Z,4.69
2018-12-17T06:35:55.379Z,4.77
2018-12-17T06:41:05.406Z,4.78
2018-12-17T06:46:14.592Z,4.82
2018-12-17T06:51:25.191Z,4.83
2018-12-17T06:56:37.277Z,4.92
2018-12-17T07:01:49.893Z,4.90
2018-12-17T07:06:59.783Z,4.78
2018-12-17T07:12:11.438Z,4.69
2018-12-17T07:17:23.076Z,4.71
2018-12-17T07:22:34.885Z,4.75
2018-12-17T07:27:43.988Z,4.85
2018-12-17T07:32:56.527Z,4.98
2018-12-17T07:38:03.778Z,4.90
2018-12-17T07:43:12.153Z,4.92
2018-12-17T07:48:24.690Z,4.93
2018-12-17T07:53:35.535Z,5.07
2018-12-17T07:58:48.899Z,5.20
2018-12-17T08:03:55.722Z,5.11
2018-12-17T08:09:07.524Z,5.12
2018-12-17T08:14:15.274Z,5.23
2018-12-17T08:19:29.318Z,5.24
2018-12-17T08:24:43.415Z,5.28
2018-12-17T08:29:54.146Z,5.34
2018-12-17T08:35:05.961Z,5.32
2018-12-17T08:40:20.229Z,5.45
2018-12-17T08:45:32.844Z,5.45
2018-12-17T08:50:43.582Z,5.51
2018-12-17T08:55:57.163Z,5.56
2018-12-17T09:01:04.927Z,5.61
2018-12-17T09:06:14.736Z,5.75
2018-12-17T09:11:25.636Z,5.81
2018-12-17T09:16:32.493Z,5.93
2018-12-17T09:21:43.550Z,6.09
2018-12-17T09:26:53.831Z,6.17
2018-12-17T09:32:04.682Z,6.21
2018-12-17T09:37:17.252Z,6.19
2018-12-17T09:42:29.916Z,6.24
2018-12-17T09:47:41.192Z,6.24
2018-12-17T09:52:53.798Z,6.33
2018-12-17T09:58:01.892Z,6.34
2018-12-17T10:03:13.615Z,6.43
2018-12-17T10:08:24.420Z,6.60
2018-12-17T10:13:35.988Z,6.76
2018-12-17T10:18:47.273Z,6.90
2018-12-17T10:23:57.317Z,6.85
2018-12-17T10:29:07.640Z,6.87
2018-12-17T10:34:19.364Z,6.91
2018-12-17T10:39:29.259Z,7.14
2018-12-17T10:44:41.001Z,7.26
2018-12-17T10:49:53.664Z,7.26
2018-12-17T10:55:06.281Z,7.38
2018-12-17T11:00:39.375Z,7.33
2018-12-17T11:05:45.176Z,7.26
2018-12-17T11:10:53.384Z,7.25
2018-12-17T11:16:03.951Z,7.22
2018-12-17T11:21:12.486Z,7.13
2018-12-17T11:26:26.341Z,7.07
2018-12-17T11:31:36.842Z,7.03
2018-12-17T11:36:53.477Z,6.90
2018-12-17T11:42:04.750Z,6.93
2018-12-17T11:47:14.565Z,6.90
2018-12-17T11:52:27.207Z,6.94
2018-12-17T11:58:01.012Z,6.96
2018-12-17T12:03:08.454Z,6.93
2018-12-17T12:08:17.799Z,7.05
2018-12-17T12:13:35.075Z,7.03
2018-12-17T12:18:45.732Z,7.04
2018-12-17T12:23:53.741Z,7.19
2018-12-17T12:29:02.500Z,7.19
2018-12-17T12:34:11.846Z,7.08
2018-12-17T12:39:23.580Z,7.02
2018-12-17T12:44:31.427Z,6.99
2018-12-17T12:49:44.770Z,6.95
2018-12-17T12:54:56.361Z,6.97
2018-12-17T13:00:06.179Z,7.04
2018-12-17T13:05:16.867Z,7.07
2018-12-17T13:10:28.581Z,7.08
2018-12-17T13:15:37.583Z,7.14
2018-12-17T13:20:51.076Z,7.24
2018-12-17T13:26:02.210Z,7.27
2018-12-17T13:31:14.789Z,7.34
2018-12-17T13:36:23.847Z,7.80
2018-12-17T13:41:33.235Z,7.74
2018-12-17T13:46:50.275Z,7.64
2018-12-17T13:52:21.031Z,7.77
2018-12-17T13:57:33.706Z,7.73
2018-12-17T14:02:43.333Z,7.71
2018-12-17T14:07:53.210Z,7.66
2018-12-17T14:13:05.830Z,7.66
2018-12-17T14:18:48.611Z,7.64
2018-12-17T14:24:00.359Z,7.63
2018-12-17T14:29:08.740Z,7.68
2018-12-17T14:34:21.387Z,7.65
2018-12-17T14:39:30.379Z,7.58
2018-12-17T14:44:40.268Z,7.60
2018-12-17T14:49:47.851Z,7.55
2018-12-17T14:54:59.182Z,7.57
2018-12-17T15:00:09.375Z,7.60
2018-12-17T15:05:21.927Z,7.61
2018-12-17T15:10:32.674Z,7.67
2018-12-17T15:15:41.961Z,7.60
2018-12-17T15:20:49.721Z,7.59
2018-12-17T15:25:58.173Z,7.52
2018-12-17T15:31:08.046Z,7.48
2018-12-17T15:36:17.934Z,7.61
2018-12-17T15:41:28.827Z,7.62
2018-12-17T15:46:36.130Z,7.56
2018-12-17T15:51:47.087Z,7.54
2018-12-17T15:56:56.970Z,7.38
2018-12-17T16:02:06.870Z,7.25
2018-12-17T16:07:18.911Z,7.09
2018-12-17T16:12:28.738Z,6.99
2018-12-17T16:17:37.384Z,6.91
2018-12-17T16:22:46.027Z,6.88
2018-12-17T16:27:58.363Z,6.81
2018-12-17T16:33:09.477Z,6.74
2018-12-17T16:38:21.619Z,6.70
2018-12-17T16:43:31.370Z,6.58
2018-12-17T16:48:41.559Z,6.49
2018-12-17T16:53:52.388Z,6.39
2018-12-17T16:59:02.593Z,6.29
2018-12-17T17:04:15.256Z,6.15
2018-12-17T17:09:27.057Z,6.09
2018-12-17T17:14:38.413Z,6.02
2018-12-17T17:19:51.199Z,5.98
2018-12-17T17:25:00.868Z,5.96
2018-12-17T17:30:12.825Z,5.98
2018-12-17T17:35:30.124Z,6.02
2018-12-17T17:40:42.903Z,5.98
2018-12-17T17:45:51.959Z,5.84
2018-12-17T17:51:03.717Z,5.85
2018-12-17T17:56:17.551Z,6.10
2018-12-17T18:01:27.101Z,6.42
2018-12-17T18:06:41.741Z,6.35
2018-12-17T18:11:50.891Z,6.40
2018-12-17T18:16:59.843Z,6.26
2018-12-17T18:22:22.158Z,6.08
2018-12-17T18:27:33.352Z,5.95
2018-12-17T18:32:41.191Z,5.96
2018-12-17T18:37:51.303Z,5.88
2018-12-17T18:43:01.158Z,5.72
2018-12-17T18:48:13.799Z,5.65
2018-12-17T18:53:31.055Z,5.58
2018-12-17T18:58:39.695Z,5.47
2018-12-17T19:03:49.090Z,5.38
2018-12-17T19:08:59.017Z,5.40
2018-12-17T19:14:13.701Z,5.66
2018-12-17T19:19:27.428Z,5.74
2018-12-17T19:24:37.180Z,5.76
2018-12-17T19:29:44.215Z,5.54
2018-12-17T19:34:58.636Z,5.39
2018-12-17T19:40:07.912Z,5.24
2018-12-17T19:45:15.108Z,5.12
2018-12-17T19:50:29.125Z,5.05
2018-12-17T19:55:38.170Z,5.01
2018-12-17T20:00:48.957Z,4.94
2018-12-17T20:06:07.786Z,4.89
2018-12-17T20:11:20.683Z,4.88
2018-12-17T20:16:36.676Z,4.80
2018-12-17T20:21:46.686Z,4.87
2018-12-17T20:26:56.659Z,5.21
2018-12-17T20:32:09.237Z,5.33
2018-12-17T20:37:19.080Z,5.39
2018-12-17T20:42:33.499Z,5.27
2018-12-17T20:47:49.766Z,5.18
2018-12-17T20:52:57.583Z,5.13
2018-12-17T20:58:07.421Z,5.02
2018-12-17T21:03:14.917Z,4.98
2018-12-17T21:08:33.989Z,4.96
2018-12-17T21:13:48.375Z,5.01
2018-12-17T21:19:00.283Z,5.06
2018-12-17T21:24:13.895Z,5.11
2018-12-17T21:29:23.898Z,5.04
2018-12-17T21:34:31.717Z,5.18
2018-12-17T21:39:41.639Z,5.11
2018-12-17T21:44:54.183Z,5.21
2018-12-17T21:50:09.446Z,5.38
2018-12-17T21:55:24.201Z,5.50
2018-12-17T22:00:42.283Z,5.53
2018-12-17T22:05:57.706Z,5.54
2018-12-17T22:11:06.729Z,5.58
2018-12-17T22:16:17.636Z,5.60
2018-12-17T22:21:29.742Z,5.68
2018-12-17T22:26:42.308Z,5.74
2018-12-17T22:31:51.300Z,5.71
2018-12-17T22:37:05.925Z,5.62
2018-12-17T22:42:19.527Z,5.55
2018-12-17T22:47:30.085Z,5.40
2018-12-17T22:52:43.589Z,5.39
2018-12-17T22:57:55.304Z,5.46
2018-12-17T23:03:08.902Z,5.22
2018-12-17T23:08:18.214Z,5.27
2018-12-17T23:13:58.787Z,5.26
2018-12-17T23:19:07.269Z,5.28
2018-12-17T23:24:16.262Z,5.29
2018-12-17T23:29:31.622Z,5.25
2018-12-17T23:34:48.127Z,5.25
2018-12-17T23:39:59.047Z,5.27
2018-12-17T23:45:07.731Z,5.39
2018-12-17T23:50:16.038Z,5.41
2018-12-17T23:55:28.855Z,5.39
